createdAt,value
2019-02-09T00:00:23.260Z,8.25
2019-02-09T00:01:23.264Z,8.25
2019-02-09T00:02:23.275Z,8.24
2019-02-09T00:03:23.267Z,8.25
2019-02-09T00:04:23.281Z,8.27
2019-02-09T00:05:23.276Z,8.24
2019-02-09T00:06:23.275Z,8.34
2019-02-09T00:07:23.279Z,8.31
2019-02-09T00:08:23.279Z,8.31
2019-02-09T00:09:23.298Z,8.31
2019-02-09T00:10:23.288Z,8.40
2019-02-09T00:11:23.293Z,8.37
2019-02-09T00:12:23.296Z,8.36
2019-02-09T00:13:23.298Z,8.36
2019-02-09T00:14:23.295Z,8.25
2019-02-09T00:15:23.305Z,8.36
2019-02-09T00:16:23.315Z,8.27
2019-02-09T00:17:23.314Z,8.32
2019-02-09T00:18:23.315Z,8.40
2019-02-09T00:19:23.317Z,8.42
2019-02-09T00:20:23.373Z,8.47
2019-02-09T00:21:23.322Z,8.39
2019-02-09T00:22:23.330Z,8.31
2019-02-09T00:23:23.327Z,8.40
2019-02-09T00:24:23.344Z,8.36
2019-02-09T00:25:23.343Z,8.34
2019-02-09T00:26:23.347Z,8.32
2019-02-09T00:27:23.351Z,8.24
2019-02-09T00:28:23.347Z,8.29
2019-02-09T00:29:23.363Z,8.25
2019-02-09T00:30:23.358Z,8.27
2019-02-09T00:31:23.367Z,8.25
2019-02-09T00:32:23.359Z,8.25
2019-02-09T00:33:23.362Z,8.14
2019-02-09T00:34:23.371Z,8.14
2019-02-09T00:35:23.377Z,8.14
2019-02-09T00:36:23.374Z,8.14
2019-02-09T00:37:23.376Z,8.18
2019-02-09T00:38:23.380Z,8.13
2019-02-09T00:39:23.382Z,8.17
2019-02-09T00:40:23.386Z,8.14
2019-02-09T00:41:23.389Z,8.14
2019-02-09T00:42:23.389Z,8.10
2019-02-09T00:43:23.411Z,8.17
2019-02-09T00:44:23.412Z,8.13
2019-02-09T00:45:23.402Z,8.13
2019-02-09T00:46:23.410Z,8.14
2019-02-09T00:47:23.477Z,8.04
2019-02-09T00:48:23.416Z,8.12
2019-02-09T00:49:23.425Z,8.20
2019-02-09T00:50:23.417Z,8.17
2019-02-09T00:51:23.421Z,8.10
2019-02-09T00:52:23.429Z,8.09
2019-02-09T00:53:23.426Z,8.12
2019-02-09T00:54:23.436Z,8.13
2019-02-09T00:55:23.441Z,8.24
2019-02-09T00:56:23.439Z,8.21
2019-02-09T00:57:23.433Z,8.13
2019-02-09T00:58:23.442Z,8.18
2019-02-09T00:59:23.449Z,8.13
2019-02-09T01:00:23.461Z,8.12
2019-02-09T01:01:23.455Z,8.14
2019-02-09T01:02:23.463Z,8.03
2019-02-09T01:03:23.473Z,8.00
2019-02-09T01:04:23.460Z,7.99
2019-02-09T01:05:23.464Z,8.04
2019-02-09T01:06:23.466Z,8.04
2019-02-09T01:07:23.476Z,8.10
2019-02-09T01:08:23.484Z,8.17
2019-02-09T01:09:23.478Z,8.17
2019-02-09T01:10:23.513Z,8.18
2019-02-09T01:11:23.485Z,8.09
2019-02-09T01:12:23.484Z,8.07
2019-02-09T01:13:23.492Z,8.10
2019-02-09T01:14:23.496Z,8.17
2019-02-09T01:15:23.502Z,8.03
2019-02-09T01:16:23.510Z,8.10
2019-02-09T01:17:23.503Z,8.03
2019-02-09T01:18:23.502Z,8.10
2019-02-09T01:19:23.516Z,8.09
2019-02-09T01:20:23.511Z,8.06
2019-02-09T01:21:23.515Z,8.10
2019-02-09T01:22:23.521Z,8.06
2019-02-09T01:23:23.526Z,8.06
2019-02-09T01:24:23.521Z,8.09
2019-02-09T01:25:23.528Z,8.10
2019-02-09T01:26:23.530Z,8.12
2019-02-09T01:27:23.537Z,8.06
2019-02-09T01:28:23.538Z,8.07
2019-02-09T01:29:23.550Z,8.03
2019-02-09T01:30:23.547Z,8.13
2019-02-09T01:31:23.547Z,8.06
2019-02-09T01:32:23.551Z,8.06
2019-02-09T01:33:23.553Z,8.03
2019-02-09T01:34:23.552Z,8.04
2019-02-09T01:35:23.563Z,8.00
2019-02-09T01:36:23.563Z,8.03
2019-02-09T01:37:23.566Z,8.00
2019-02-09T01:38:23.571Z,8.04
2019-02-09T01:39:23.573Z,8.04
2019-02-09T01:40:23.576Z,8.07
2019-02-09T01:41:23.578Z,8.17
2019-02-09T01:42:23.575Z,8.06
2019-02-09T01:43:23.582Z,8.09
2019-02-09T01:44:23.595Z,8.06
2019-02-09T01:45:23.589Z,8.07
2019-02-09T01:46:23.595Z,8.10
2019-02-09T01:47:23.596Z,8.10
2019-02-09T01:48:23.597Z,8.14
2019-02-09T01:49:23.600Z,8.12
2019-02-09T01:50:23.604Z,8.14
2019-02-09T01:51:23.614Z,8.17
2019-02-09T01:52:23.611Z,8.18
2019-02-09T01:53:23.615Z,8.17
2019-02-09T01:54:23.624Z,8.13
2019-02-09T01:55:23.624Z,8.13
2019-02-09T01:56:23.624Z,8.18
2019-02-09T01:57:23.619Z,8.17
2019-02-09T01:58:23.635Z,8.10
2019-02-09T01:59:23.637Z,8.12
2019-02-09T02:00:23.637Z,8.24
2019-02-09T02:01:23.635Z,8.22
2019-02-09T02:02:23.645Z,8.21
2019-02-09T02:03:23.653Z,8.24
2019-02-09T02:04:23.661Z,8.24
2019-02-09T02:05:23.655Z,8.21
2019-02-09T02:06:23.656Z,8.25
2019-02-09T02:07:23.663Z,8.27
2019-02-09T02:08:23.661Z,8.27
2019-02-09T02:09:23.664Z,8.25
2019-02-09T02:10:23.671Z,8.34
2019-02-09T02:11:23.668Z,8.36
2019-02-09T02:12:23.677Z,8.36
2019-02-09T02:13:23.684Z,8.32
2019-02-09T02:14:23.693Z,8.28
2019-02-09T02:15:23.689Z,8.25
2019-02-09T02:16:23.688Z,8.24
2019-02-09T02:17:23.698Z,8.27
2019-02-09T02:18:23.699Z,8.21
2019-02-09T02:19:23.709Z,8.18
2019-02-09T02:20:23.706Z,8.22
2019-02-09T02:21:23.713Z,8.22
2019-02-09T02:22:23.712Z,8.21
2019-02-09T02:23:23.713Z,8.21
2019-02-09T02:24:23.720Z,8.18
2019-02-09T02:25:23.792Z,8.07
2019-02-09T02:26:23.727Z,8.13
2019-02-09T02:27:23.730Z,8.14
2019-02-09T02:28:23.734Z,8.13
2019-02-09T02:29:23.747Z,8.13
2019-02-09T02:30:23.743Z,8.06
2019-02-09T02:31:23.747Z,8.07
2019-02-09T02:32:23.741Z,8.09
2019-02-09T02:33:23.750Z,8.07
2019-02-09T02:34:23.750Z,8.03
2019-02-09T02:35:23.749Z,8.04
2019-02-09T02:36:23.762Z,7.95
2019-02-09T02:37:23.754Z,8.06
2019-02-09T02:38:23.767Z,8.03
2019-02-09T02:39:23.769Z,8.04
2019-02-09T02:40:23.768Z,7.94
2019-02-09T02:41:23.772Z,7.89
2019-02-09T02:42:23.774Z,7.94
2019-02-09T02:43:23.781Z,8.04
2019-02-09T02:44:23.786Z,7.92
2019-02-09T02:45:23.785Z,7.92
2019-02-09T02:46:23.794Z,8.03
2019-02-09T02:47:23.801Z,7.91
2019-02-09T02:48:23.815Z,7.88
2019-02-09T02:49:23.802Z,7.92
2019-02-09T02:50:23.806Z,7.88
2019-02-09T02:51:23.804Z,7.89
2019-02-09T02:52:23.813Z,7.94
2019-02-09T02:53:23.812Z,8.00
2019-02-09T02:54:23.822Z,7.91
2019-02-09T02:55:23.830Z,7.99
2019-02-09T02:56:23.825Z,7.94
2019-02-09T02:57:23.829Z,8.06
2019-02-09T02:58:23.830Z,8.03
2019-02-09T02:59:23.836Z,8.07
2019-02-09T03:00:31.799Z,8.07
2019-02-09T03:01:23.866Z,7.99
2019-02-09T03:02:23.853Z,8.03
2019-02-09T03:03:23.853Z,8.14
2019-02-09T03:04:23.861Z,8.04
2019-02-09T03:05:23.856Z,8.13
2019-02-09T03:06:23.869Z,8.14
2019-02-09T03:07:23.859Z,8.17
2019-02-09T03:08:23.861Z,8.25
2019-02-09T03:09:23.872Z,8.27
2019-02-09T03:10:23.869Z,8.24
2019-02-09T03:11:23.875Z,8.24
2019-02-09T03:12:23.874Z,8.28
2019-02-09T03:13:23.886Z,8.31
2019-02-09T03:14:23.883Z,8.36
2019-02-09T03:15:23.888Z,8.25
2019-02-09T03:16:23.890Z,8.27
2019-02-09T03:17:23.896Z,8.31
2019-02-09T03:18:23.897Z,8.43
2019-02-09T03:19:23.904Z,8.42
2019-02-09T03:20:23.907Z,8.49
2019-02-09T03:21:23.911Z,8.37
2019-02-09T03:22:23.917Z,8.49
2019-02-09T03:23:23.931Z,8.49
2019-02-09T03:24:23.917Z,8.45
2019-02-09T03:25:23.923Z,8.49
2019-02-09T03:26:23.927Z,8.37
2019-02-09T03:27:23.932Z,8.40
2019-02-09T03:28:23.938Z,8.36
2019-02-09T03:29:23.933Z,8.32
2019-02-09T03:30:23.941Z,8.49
2019-02-09T03:31:23.980Z,8.39
2019-02-09T03:32:23.947Z,8.46
2019-02-09T03:33:23.957Z,8.40
2019-02-09T03:34:23.955Z,8.50
2019-02-09T03:35:23.956Z,8.42
2019-02-09T03:36:23.961Z,8.46
2019-02-09T03:37:23.967Z,8.45
2019-02-09T03:38:23.967Z,8.47
2019-02-09T03:39:23.981Z,8.45
2019-02-09T03:40:23.975Z,8.40
2019-02-09T03:41:23.990Z,8.46
2019-02-09T03:42:23.987Z,8.42
2019-02-09T03:43:23.985Z,8.40
2019-02-09T03:44:23.989Z,8.47
2019-02-09T03:45:23.989Z,8.43
2019-02-09T03:46:23.994Z,8.52
2019-02-09T03:47:24.002Z,8.57
2019-02-09T03:48:24.005Z,8.55
2019-02-09T03:49:24.009Z,8.43
2019-02-09T03:50:24.002Z,8.57
2019-02-09T03:51:24.014Z,8.63
2019-02-09T03:52:24.028Z,8.63
2019-02-09T03:53:24.019Z,8.57
2019-02-09T03:54:24.026Z,8.54
2019-02-09T03:55:24.034Z,8.61
2019-02-09T03:56:24.027Z,8.55
2019-02-09T03:57:24.037Z,8.60
2019-02-09T03:58:24.039Z,8.65
2019-02-09T03:59:24.046Z,8.64
2019-02-09T04:00:24.093Z,8.67
2019-02-09T04:01:24.053Z,8.63
2019-02-09T04:02:24.055Z,8.50
2019-02-09T04:03:24.055Z,8.57
2019-02-09T04:04:24.063Z,8.49
2019-02-09T04:05:24.063Z,8.55
2019-02-09T04:06:24.075Z,8.60
2019-02-09T04:07:24.074Z,8.57
2019-02-09T04:08:24.083Z,8.55
2019-02-09T04:09:24.082Z,8.58
2019-02-09T04:10:24.236Z,8.57
2019-02-09T04:11:24.095Z,8.58
2019-02-09T04:12:24.089Z,8.58
2019-02-09T04:13:24.098Z,8.52
2019-02-09T04:14:24.101Z,8.54
2019-02-09T04:15:24.101Z,8.57
2019-02-09T04:16:24.117Z,8.52
2019-02-09T04:17:24.123Z,8.63
2019-02-09T04:18:24.117Z,8.60
2019-02-09T04:19:24.121Z,8.55
2019-02-09T04:20:24.119Z,8.60
2019-02-09T04:21:24.127Z,8.60
2019-02-09T04:22:24.128Z,8.64
2019-02-09T04:23:24.138Z,8.60
2019-02-09T04:24:24.138Z,8.64
2019-02-09T04:25:24.149Z,8.64
2019-02-09T04:26:24.146Z,8.67
2019-02-09T04:27:24.149Z,8.64
2019-02-09T04:28:24.148Z,8.65
2019-02-09T04:29:24.156Z,8.67
2019-02-09T04:30:24.168Z,8.68
2019-02-09T04:31:24.165Z,8.76
2019-02-09T04:32:24.165Z,8.80
2019-02-09T04:33:24.168Z,8.70
2019-02-09T04:34:24.185Z,8.75
2019-02-09T04:35:24.181Z,8.78
2019-02-09T04:36:24.187Z,8.73
2019-02-09T04:37:24.178Z,8.71
2019-02-09T04:38:24.187Z,8.70
2019-02-09T04:39:24.192Z,8.79
2019-02-09T04:40:24.196Z,8.79
2019-02-09T04:41:24.198Z,8.75
2019-02-09T04:42:24.202Z,8.73
2019-02-09T04:43:24.207Z,8.80
2019-02-09T04:44:24.211Z,8.83
2019-02-09T04:45:24.216Z,8.79
2019-02-09T04:46:24.219Z,8.78
2019-02-09T04:47:24.222Z,8.78
2019-02-09T04:48:24.222Z,8.98
2019-02-09T04:49:24.231Z,8.94
2019-02-09T04:50:24.240Z,8.94
2019-02-09T04:51:24.235Z,8.86
2019-02-09T04:52:24.247Z,8.83
2019-02-09T04:53:24.243Z,8.88
2019-02-09T04:54:24.251Z,8.93
2019-02-09T04:55:24.256Z,8.86
2019-02-09T04:56:24.262Z,8.97
2019-02-09T04:57:24.271Z,8.97
2019-02-09T04:58:24.264Z,8.83
2019-02-09T04:59:24.267Z,8.89
2019-02-09T05:00:24.270Z,8.94
2019-02-09T05:01:24.277Z,9.00
2019-02-09T05:02:24.280Z,8.98
2019-02-09T05:03:24.282Z,9.01
2019-02-09T05:04:24.290Z,8.91
2019-02-09T05:05:24.289Z,8.94
2019-02-09T05:06:24.290Z,8.89
2019-02-09T05:07:24.304Z,8.85
2019-02-09T05:08:24.306Z,8.79
2019-02-09T05:09:24.307Z,8.89
2019-02-09T05:10:24.317Z,8.83
2019-02-09T05:11:24.318Z,8.89
2019-02-09T05:12:24.323Z,9.03
2019-02-09T05:13:24.325Z,9.03
2019-02-09T05:14:24.328Z,9.03
2019-02-09T05:15:24.831Z,8.96
2019-02-09T05:16:24.336Z,9.04
2019-02-09T05:17:24.344Z,9.08
2019-02-09T05:18:24.343Z,8.93
2019-02-09T05:19:24.350Z,9.04
2019-02-09T05:20:25.140Z,9.08
2019-02-09T05:21:24.354Z,9.08
2019-02-09T05:22:24.362Z,9.06
2019-02-09T05:23:24.361Z,9.08
2019-02-09T05:24:24.366Z,9.04
2019-02-09T05:25:24.379Z,9.04
2019-02-09T05:26:24.384Z,9.12
2019-02-09T05:27:24.378Z,9.06
2019-02-09T05:28:24.382Z,9.03
2019-02-09T05:29:24.386Z,9.08
2019-02-09T05:30:24.392Z,9.06
2019-02-09T05:31:24.398Z,9.10
2019-02-09T05:32:24.402Z,9.10
2019-02-09T05:33:24.413Z,9.08
2019-02-09T05:34:24.412Z,9.03
2019-02-09T05:35:24.411Z,9.10
2019-02-09T05:36:24.414Z,9.06
2019-02-09T05:37:24.419Z,9.08
2019-02-09T05:38:24.422Z,9.08
2019-02-09T05:39:24.436Z,9.06
2019-02-09T05:40:24.428Z,9.15
2019-02-09T05:41:24.435Z,9.04
2019-02-09T05:42:24.440Z,9.15
2019-02-09T05:43:24.443Z,9.13
2019-02-09T05:44:24.451Z,9.01
2019-02-09T05:45:24.461Z,9.06
2019-02-09T05:46:24.461Z,9.16
2019-02-09T05:47:24.464Z,9.12
2019-02-09T05:48:24.485Z,9.03
2019-02-09T05:49:24.476Z,9.03
2019-02-09T05:50:24.469Z,8.91
2019-02-09T05:51:24.482Z,9.01
2019-02-09T05:52:24.477Z,9.03
2019-02-09T05:53:24.478Z,9.08
2019-02-09T05:54:24.485Z,9.06
2019-02-09T05:55:24.488Z,9.10
2019-02-09T05:56:24.493Z,9.10
2019-02-09T05:57:24.499Z,9.08
2019-02-09T05:58:24.496Z,9.01
2019-02-09T05:59:24.511Z,9.03
2019-02-09T06:00:24.510Z,9.13
2019-02-09T06:01:31.796Z,9.08
2019-02-09T06:02:24.519Z,9.08
2019-02-09T06:03:24.526Z,9.01
2019-02-09T06:04:24.524Z,9.10
2019-02-09T06:05:24.532Z,9.15
2019-02-09T06:06:24.528Z,9.01
2019-02-09T06:07:24.545Z,9.03
2019-02-09T06:08:24.539Z,9.06
2019-02-09T06:09:24.539Z,9.04
2019-02-09T06:10:24.556Z,9.00
2019-02-09T06:11:24.551Z,9.08
2019-02-09T06:12:24.550Z,9.06
2019-02-09T06:13:24.555Z,9.15
2019-02-09T06:14:24.560Z,9.15
2019-02-09T06:15:24.570Z,9.17
2019-02-09T06:16:24.571Z,9.15
2019-02-09T06:17:24.570Z,9.20
2019-02-09T06:18:24.579Z,9.15
2019-02-09T06:19:24.594Z,9.04
2019-02-09T06:20:24.585Z,9.08
2019-02-09T06:21:24.587Z,9.15
2019-02-09T06:22:24.595Z,9.12
2019-02-09T06:23:24.621Z,9.10
2019-02-09T06:24:24.601Z,9.16
2019-02-09T06:25:24.617Z,9.15
2019-02-09T06:26:24.608Z,9.16
2019-02-09T06:27:24.613Z,9.16
2019-02-09T06:28:24.617Z,9.16
2019-02-09T06:29:24.625Z,9.26
2019-02-09T06:30:24.624Z,9.22
2019-02-09T06:31:24.630Z,9.20
2019-02-09T06:32:24.632Z,9.15
2019-02-09T06:33:24.635Z,9.20
2019-02-09T06:34:24.638Z,9.15
2019-02-09T06:35:24.645Z,9.16
2019-02-09T06:36:24.646Z,9.16
2019-02-09T06:37:24.649Z,9.20
2019-02-09T06:38:24.662Z,9.19
2019-02-09T06:39:24.659Z,9.17
2019-02-09T06:40:24.678Z,9.22
2019-02-09T06:41:24.674Z,9.19
2019-02-09T06:42:24.678Z,9.20
2019-02-09T06:43:24.679Z,9.19
2019-02-09T06:44:24.678Z,9.24
2019-02-09T06:45:24.686Z,9.24
2019-02-09T06:46:24.684Z,9.27
2019-02-09T06:47:24.692Z,9.20
2019-02-09T06:48:24.697Z,9.23
2019-02-09T06:49:24.699Z,9.20
2019-02-09T06:50:24.718Z,9.27
2019-02-09T06:51:24.709Z,9.19
2019-02-09T06:52:24.714Z,9.16
2019-02-09T06:53:24.719Z,9.24
2019-02-09T06:54:24.724Z,9.31
2019-02-09T06:55:24.730Z,9.34
2019-02-09T06:56:24.737Z,9.31
2019-02-09T06:57:24.735Z,9.27
2019-02-09T06:58:24.739Z,9.30
2019-02-09T07:00:56.590Z,9.26
2019-02-09T07:01:56.557Z,9.19
2019-02-09T07:02:56.568Z,9.23
2019-02-09T07:03:56.569Z,9.19
2019-02-09T07:04:56.573Z,9.26
2019-02-09T07:05:56.579Z,9.26
2019-02-09T07:06:56.588Z,9.24
2019-02-09T07:07:56.584Z,9.23
2019-02-09T07:08:56.592Z,9.17
2019-02-09T07:09:56.596Z,9.22
2019-02-09T07:10:56.593Z,9.27
2019-02-09T07:11:56.602Z,9.19
2019-02-09T07:12:56.607Z,9.16
2019-02-09T07:13:56.616Z,9.17
2019-02-09T07:14:56.616Z,9.15
2019-02-09T07:15:56.624Z,9.16
2019-02-09T07:16:56.623Z,9.15
2019-02-09T07:17:56.633Z,9.15
2019-02-09T07:18:56.633Z,9.16
2019-02-09T07:19:56.636Z,9.16
2019-02-09T07:20:56.637Z,9.20
2019-02-09T07:21:56.637Z,9.19
2019-02-09T07:22:56.647Z,9.26
2019-02-09T07:23:56.650Z,9.12
2019-02-09T07:24:56.654Z,9.24
2019-02-09T07:25:56.660Z,9.27
2019-02-09T07:26:56.664Z,9.24
2019-02-09T07:27:56.669Z,9.31
2019-02-09T07:28:56.668Z,9.24
2019-02-09T07:29:56.674Z,9.30
2019-02-09T07:30:56.679Z,9.27
2019-02-09T07:31:56.810Z,9.16
2019-02-09T07:32:56.684Z,9.20
2019-02-09T07:33:56.687Z,9.16
2019-02-09T07:34:56.693Z,9.23
2019-02-09T07:35:56.699Z,9.20
2019-02-09T07:36:56.704Z,9.23
2019-02-09T07:37:56.709Z,9.30
2019-02-09T07:38:56.713Z,9.24
2019-02-09T07:39:56.714Z,9.26
2019-02-09T07:40:56.723Z,9.24
2019-02-09T07:41:56.728Z,9.31
2019-02-09T07:42:56.731Z,9.30
2019-02-09T07:43:56.737Z,9.27
2019-02-09T07:44:56.734Z,9.35
2019-02-09T07:45:56.743Z,9.34
2019-02-09T07:46:56.752Z,9.35
2019-02-09T07:47:56.757Z,9.35
2019-02-09T07:48:56.747Z,9.34
2019-02-09T07:49:56.759Z,9.34
2019-02-09T07:50:56.769Z,9.35
2019-02-09T07:51:56.768Z,9.31
2019-02-09T07:52:56.776Z,9.37
2019-02-09T07:53:56.771Z,9.38
2019-02-09T07:54:56.783Z,9.40
2019-02-09T07:55:56.794Z,9.40
2019-02-09T07:56:56.791Z,9.41
2019-02-09T07:57:56.793Z,9.38
2019-02-09T07:58:56.806Z,9.38
2019-02-09T07:59:56.801Z,9.40
2019-02-09T08:00:56.808Z,9.35
2019-02-09T08:02:04.222Z,9.38
2019-02-09T08:02:56.821Z,9.38
2019-02-09T08:03:56.825Z,9.34
2019-02-09T08:04:56.824Z,9.38
2019-02-09T08:05:56.860Z,9.37
2019-02-09T08:06:56.845Z,9.44
2019-02-09T08:07:56.837Z,9.34
2019-02-09T08:08:56.845Z,9.37
2019-02-09T08:09:56.847Z,9.48
2019-02-09T08:10:56.851Z,9.40
2019-02-09T08:11:56.903Z,9.40
2019-02-09T08:12:56.864Z,9.35
2019-02-09T08:13:56.865Z,9.40
2019-02-09T08:14:56.873Z,9.49
2019-02-09T08:15:56.874Z,9.40
2019-02-09T08:16:56.880Z,9.35
2019-02-09T08:17:56.886Z,9.37
2019-02-09T08:18:56.886Z,9.45
2019-02-09T08:19:56.895Z,9.41
2019-02-09T08:20:56.899Z,9.42
2019-02-09T08:21:56.985Z,9.45
2019-02-09T08:22:56.907Z,9.41
2019-02-09T08:23:56.911Z,9.38
2019-02-09T08:24:56.920Z,9.41
2019-02-09T08:25:56.936Z,9.44
2019-02-09T08:26:56.943Z,9.45
2019-02-09T08:27:56.942Z,9.38
2019-02-09T08:28:56.941Z,9.40
2019-02-09T08:29:56.946Z,9.41
2019-02-09T08:30:56.951Z,9.41
2019-02-09T08:31:56.955Z,9.37
2019-02-09T08:32:56.955Z,9.35
2019-02-09T08:33:56.966Z,9.42
2019-02-09T08:34:56.973Z,9.40
2019-02-09T08:35:56.974Z,9.40
2019-02-09T08:36:56.990Z,9.35
2019-02-09T08:37:56.984Z,9.34
2019-02-09T08:38:56.993Z,9.35
2019-02-09T08:39:56.992Z,9.38
2019-02-09T08:40:56.999Z,9.40
2019-02-09T08:41:56.998Z,9.44
2019-02-09T08:42:57.005Z,9.38
2019-02-09T08:43:57.015Z,9.37
2019-02-09T08:44:57.015Z,9.31
2019-02-09T08:45:57.023Z,9.40
2019-02-09T08:46:57.026Z,9.41
2019-02-09T08:47:57.037Z,9.37
2019-02-09T08:48:57.041Z,9.37
2019-02-09T08:49:57.053Z,9.42
2019-02-09T08:50:57.056Z,9.52
2019-02-09T08:51:57.055Z,9.48
2019-02-09T08:52:57.074Z,9.42
2019-02-09T08:53:57.127Z,9.41
2019-02-09T08:54:57.077Z,9.48
2019-02-09T08:55:57.074Z,9.45
2019-02-09T08:56:57.082Z,9.45
2019-02-09T08:57:57.082Z,9.52
2019-02-09T08:58:57.090Z,9.62
2019-02-09T08:59:57.095Z,9.62
2019-02-09T09:00:57.111Z,9.67
2019-02-09T09:01:57.112Z,9.71
2019-02-09T09:02:57.119Z,9.71
2019-02-09T09:03:57.137Z,9.70
2019-02-09T09:04:57.135Z,9.63
2019-02-09T09:05:57.136Z,9.55
2019-02-09T09:07:57.174Z,9.74
2019-02-09T09:08:57.209Z,9.67
2019-02-09T09:09:57.170Z,9.88
2019-02-09T09:10:57.165Z,9.77
2019-02-09T09:11:57.183Z,9.78
2019-02-09T09:12:57.177Z,9.74
2019-02-09T09:13:57.192Z,9.92
2019-02-09T09:14:57.245Z,10.25
2019-02-09T09:15:57.203Z,10.26
2019-02-09T09:16:57.214Z,10.26
2019-02-09T09:17:57.215Z,10.32
2019-02-09T09:18:57.222Z,10.18
2019-02-09T09:19:57.270Z,10.07
2019-02-09T09:20:57.301Z,10.11
2019-02-09T09:21:57.245Z,10.11
2019-02-09T09:22:57.255Z,10.14
2019-02-09T09:23:57.261Z,10.25
2019-02-09T09:24:57.265Z,10.34
2019-02-09T09:25:57.277Z,10.13
2019-02-09T09:26:57.297Z,10.26
2019-02-09T09:27:57.305Z,10.11
2019-02-09T09:28:57.324Z,10.11
2019-02-09T09:29:57.323Z,10.10
2019-02-09T09:30:57.316Z,10.25
2019-02-09T09:31:57.334Z,10.49
2019-02-09T09:32:57.339Z,10.28
2019-02-09T09:33:57.355Z,10.16
2019-02-09T09:34:57.355Z,10.25
2019-02-09T09:35:57.361Z,10.22
2019-02-09T09:36:57.365Z,10.07
2019-02-09T09:37:57.379Z,10.17
2019-02-09T09:38:57.391Z,10.29
2019-02-09T09:39:57.387Z,10.26
2019-02-09T09:40:57.409Z,10.18
2019-02-09T09:41:57.400Z,10.38
2019-02-09T09:42:57.411Z,10.46
2019-02-09T09:43:57.419Z,10.39
2019-02-09T09:44:57.427Z,10.49
2019-02-09T09:45:57.428Z,10.35
2019-02-09T09:46:57.440Z,10.28
2019-02-09T09:47:57.453Z,10.25
2019-02-09T09:48:57.464Z,10.07
2019-02-09T09:49:57.464Z,9.98
2019-02-09T09:50:57.483Z,9.95
2019-02-09T09:51:57.470Z,9.92
2019-02-09T09:52:57.481Z,9.98
2019-02-09T09:53:57.481Z,10.02
2019-02-09T09:54:57.498Z,10.13
2019-02-09T09:55:57.494Z,10.09
2019-02-09T09:56:57.513Z,9.96
2019-02-09T09:57:57.506Z,9.93
2019-02-09T09:58:57.531Z,9.93
2019-02-09T09:59:57.532Z,9.89
2019-02-09T10:00:57.528Z,9.85
2019-02-09T10:01:57.532Z,9.91
2019-02-09T10:02:57.540Z,9.85
2019-02-09T10:03:57.544Z,9.78
2019-02-09T10:04:57.549Z,9.77
2019-02-09T10:05:57.557Z,9.74
2019-02-09T10:06:57.562Z,10.38
2019-02-09T10:07:57.579Z,10.88
2019-02-09T10:08:57.571Z,11.20
2019-02-09T10:09:57.584Z,11.03
2019-02-09T10:10:57.593Z,10.86
2019-02-09T10:11:57.610Z,10.65
2019-02-09T10:12:57.605Z,10.49
2019-02-09T10:13:57.621Z,10.46
2019-02-09T10:14:57.624Z,10.47
2019-02-09T10:15:57.634Z,10.63
2019-02-09T10:16:57.638Z,10.81
2019-02-09T10:17:57.656Z,11.12
2019-02-09T10:18:57.672Z,11.19
2019-02-09T10:19:57.667Z,11.64
2019-02-09T10:20:57.670Z,11.96
2019-02-09T10:21:57.691Z,12.05
2019-02-09T10:22:57.693Z,12.21
2019-02-09T10:23:57.722Z,12.05
2019-02-09T10:24:57.717Z,12.22
2019-02-09T10:25:57.731Z,12.23
2019-02-09T10:26:57.741Z,12.19
2019-02-09T10:27:57.761Z,12.38
2019-02-09T10:28:57.760Z,12.59
2019-02-09T10:29:57.772Z,12.18
2019-02-09T10:30:57.791Z,11.94
2019-02-09T10:31:57.792Z,11.79
2019-02-09T10:32:57.812Z,11.31
2019-02-09T10:33:57.817Z,11.46
2019-02-09T10:34:57.833Z,11.77
2019-02-09T10:35:57.848Z,11.77
2019-02-09T10:36:57.867Z,11.41
2019-02-09T10:37:57.862Z,11.35
2019-02-09T10:38:57.878Z,11.08
2019-02-09T10:39:57.886Z,11.20
2019-02-09T10:40:57.903Z,11.09
2019-02-09T10:41:57.907Z,11.12
2019-02-09T10:42:57.913Z,11.03
2019-02-09T10:43:57.925Z,10.84
2019-02-09T10:44:57.939Z,11.03
2019-02-09T10:45:57.941Z,11.09
2019-02-09T10:46:57.946Z,11.01
2019-02-09T10:47:57.964Z,10.98
2019-02-09T10:48:57.968Z,10.94
2019-02-09T10:49:57.973Z,10.94
2019-02-09T10:50:57.981Z,10.88
2019-02-09T10:51:57.990Z,10.84
2019-02-09T10:52:58.000Z,10.88
2019-02-09T10:53:58.003Z,10.90
2019-02-09T10:54:58.006Z,10.78
2019-02-09T10:55:58.025Z,10.83
2019-02-09T10:56:58.026Z,10.86
2019-02-09T10:57:58.035Z,10.93
2019-02-09T10:58:58.038Z,10.90
2019-02-09T10:59:58.052Z,10.88
2019-02-09T11:00:58.061Z,10.91
2019-02-09T11:01:58.062Z,11.09
2019-02-09T11:02:58.075Z,11.45
2019-02-09T11:03:58.082Z,11.44
2019-02-09T11:04:58.083Z,12.38
2019-02-09T11:05:58.102Z,12.70
2019-02-09T11:06:58.099Z,12.70
2019-02-09T11:07:58.103Z,12.26
2019-02-09T11:08:58.181Z,11.64
2019-02-09T11:09:58.129Z,11.27
2019-02-09T11:10:58.159Z,11.16
2019-02-09T11:11:58.145Z,11.19
2019-02-09T11:12:58.149Z,11.12
2019-02-09T11:13:58.159Z,10.99
2019-02-09T11:14:58.163Z,11.08
2019-02-09T11:15:58.185Z,10.91
2019-02-09T11:16:58.179Z,10.93
2019-02-09T11:17:58.192Z,10.90
2019-02-09T11:18:58.198Z,10.86
2019-02-09T11:19:58.208Z,11.01
2019-02-09T11:20:58.228Z,10.98
2019-02-09T11:21:58.223Z,11.05
2019-02-09T11:22:58.271Z,10.95
2019-02-09T11:23:58.245Z,10.84
2019-02-09T11:24:58.244Z,10.88
2019-02-09T11:25:58.253Z,10.88
2019-02-09T11:26:58.263Z,10.86
2019-02-09T11:27:58.269Z,11.01
2019-02-09T11:28:58.275Z,11.17
2019-02-09T11:29:58.282Z,11.35
2019-02-09T11:30:58.291Z,11.23
2019-02-09T11:31:58.295Z,10.95
2019-02-09T11:33:01.868Z,10.98
2019-02-09T11:33:58.309Z,10.99
2019-02-09T11:34:58.323Z,11.01
2019-02-09T11:35:59.911Z,10.99
2019-02-09T11:36:58.332Z,11.01
2019-02-09T11:37:58.340Z,11.03
2019-02-09T11:38:58.334Z,11.13
2019-02-09T11:39:58.365Z,11.06
2019-02-09T11:40:58.362Z,11.20
2019-02-09T11:41:58.369Z,11.27
2019-02-09T11:42:58.398Z,11.03
2019-02-09T11:43:58.382Z,11.03
2019-02-09T11:44:58.391Z,10.86
2019-02-09T11:45:58.394Z,10.88
2019-02-09T11:46:58.397Z,10.93
2019-02-09T11:47:58.403Z,10.91
2019-02-09T11:48:58.408Z,10.93
2019-02-09T11:49:58.528Z,10.88
2019-02-09T11:50:59.098Z,10.99
2019-02-09T11:51:58.431Z,11.03
2019-02-09T11:52:58.439Z,10.86
2019-02-09T11:53:58.447Z,10.95
2019-02-09T11:54:58.454Z,10.87
2019-02-09T11:55:58.460Z,10.87
2019-02-09T11:56:58.454Z,10.83
2019-02-09T11:57:58.472Z,10.86
2019-02-09T11:58:58.480Z,10.70
2019-02-09T11:59:58.484Z,10.70
2019-02-09T12:00:58.487Z,10.78
2019-02-09T12:01:58.494Z,10.83
2019-02-09T12:03:03.902Z,10.70
2019-02-09T12:03:58.509Z,10.76
2019-02-09T12:04:58.516Z,10.78
2019-02-09T12:05:58.522Z,11.01
2019-02-09T12:06:58.531Z,10.93
2019-02-09T12:07:58.532Z,10.84
2019-02-09T12:08:58.535Z,10.87
2019-02-09T12:09:58.547Z,10.88
2019-02-09T12:10:58.550Z,10.78
2019-02-09T12:11:58.559Z,10.84
2019-02-09T12:12:58.564Z,10.86
2019-02-09T12:13:58.572Z,10.94
2019-02-09T12:14:58.576Z,10.95
2019-02-09T12:15:58.581Z,10.98
2019-02-09T12:16:58.588Z,10.98
2019-02-09T12:17:58.606Z,11.02
2019-02-09T12:18:58.617Z,11.02
2019-02-09T12:19:58.609Z,10.91
2019-02-09T12:20:58.617Z,10.84
2019-02-09T12:21:58.621Z,11.01
2019-02-09T12:22:58.635Z,11.03
2019-02-09T12:23:58.643Z,10.98
2019-02-09T12:24:58.647Z,11.02
2019-02-09T12:25:58.648Z,11.16
2019-02-09T12:26:58.649Z,11.08
2019-02-09T12:27:58.665Z,11.59
2019-02-09T12:28:58.676Z,12.16
2019-02-09T12:29:58.681Z,11.78
2019-02-09T12:30:58.680Z,11.67
2019-02-09T12:31:58.699Z,12.30
2019-02-09T12:32:58.693Z,12.12
2019-02-09T12:33:58.708Z,12.13
2019-02-09T12:34:58.734Z,11.88
2019-02-09T12:35:58.717Z,11.75
2019-02-09T12:36:58.733Z,11.81
2019-02-09T12:37:58.750Z,11.90
2019-02-09T12:38:58.773Z,11.72
2019-02-09T12:39:58.778Z,11.64
2019-02-09T12:40:58.759Z,11.48
2019-02-09T12:41:58.763Z,11.41
2019-02-09T12:42:58.773Z,11.41
2019-02-09T12:43:58.787Z,11.28
2019-02-09T12:44:58.789Z,11.24
2019-02-09T12:45:58.789Z,11.31
2019-02-09T12:46:58.812Z,11.44
2019-02-09T12:47:58.808Z,11.28
2019-02-09T12:48:58.827Z,11.33
2019-02-09T12:49:58.824Z,11.23
2019-02-09T12:50:58.834Z,11.19
2019-02-09T12:51:58.839Z,11.17
2019-02-09T12:52:58.847Z,11.16
2019-02-09T12:53:58.873Z,11.13
2019-02-09T12:54:58.854Z,11.11
2019-02-09T12:55:58.867Z,11.06
2019-02-09T12:56:58.871Z,11.13
2019-02-09T12:57:58.878Z,11.20
2019-02-09T12:58:58.884Z,11.66
2019-02-09T12:59:58.891Z,11.36
2019-02-09T13:00:58.892Z,11.35
2019-02-09T13:01:58.907Z,11.35
2019-02-09T13:02:58.918Z,11.35
2019-02-09T13:03:58.918Z,11.42
2019-02-09T13:04:58.926Z,11.39
2019-02-09T13:05:58.930Z,11.78
2019-02-09T13:06:58.936Z,12.79
2019-02-09T13:07:58.976Z,13.07
2019-02-09T13:08:58.965Z,13.54
2019-02-09T13:09:58.965Z,12.79
2019-02-09T13:10:58.968Z,12.16
2019-02-09T13:11:58.976Z,11.77
2019-02-09T13:12:58.994Z,11.51